Time;durP1;ratioP1;P1;durP2;ratioP2;P2;SDS_P1;SDS_P2;PMS_P1;PMS_P2;Temp;Humidity;BMP_temperature;BMP_pressure;BME280_temperature;BME280_humidity;BME280_pressure;Samples;Min_cycle;Max_cycle;Signal;HPM_P1;HPM_P2
2021/09/23 00:00:15;;;;;;;41.65;26.77;;;;;;;;;;5062720;28;20036;-67
2021/09/23 00:02:49;;;;;;;40.50;27.48;;;;;;;;;;5044579;28;20059;-67
2021/09/23 00:05:17;;;;;;;40.97;28.17;;;;;;;;;;5057908;28;20037;-66
2021/09/23 00:07:43;;;;;;;44.88;27.73;;;;;;;;;;5061702;28;20051;-67
2021/09/23 00:10:10;;;;;;;40.20;29.45;;;;;;;;;;5059615;28;20040;-67
2021/09/23 00:12:37;;;;;;;38.88;28.73;;;;;;;;;;5042467;28;20078;-67
2021/09/23 00:15:04;;;;;;;40.22;28.55;;;;;;;;;;5059752;28;20045;-67
2021/09/23 00:17:30;;;;;;;41.00;29.15;;;;;;;;;;5041659;28;20357;-67
2021/09/23 00:19:57;;;;;;;50.65;30.67;;;;;;;;;;5045241;28;20451;-67
2021/09/23 00:22:23;;;;;;;43.08;30.95;;;;;;;;;;5060832;28;20480;-67
2021/09/23 00:24:49;;;;;;;42.25;30.70;;;;;;;;;;5060666;28;20106;-67
2021/09/23 00:27:15;;;;;;;41.95;31.55;;;;;;;;;;5059488;28;20131;-67
2021/09/23 00:29:41;;;;;;;43.80;31.85;;;;;;;;;;5060934;28;20033;-67
2021/09/23 00:32:08;;;;;;;47.25;33.50;;;;;;;;;;5041238;28;20628;-67
2021/09/23 00:34:34;;;;;;;52.38;33.65;;;;;;;;;;5045458;28;20522;-67
2021/09/23 00:37:00;;;;;;;51.10;33.78;;;;;;;;;;5060506;28;20049;-67
2021/09/23 00:39:26;;;;;;;53.15;34.30;;;;;;;;;;5038865;28;20365;-67
2021/09/23 00:41:53;;;;;;;53.58;34.58;;;;;;;;;;5058254;28;20041;-67
2021/09/23 00:44:20;;;;;;;58.00;37.75;;;;;;;;;;5059475;28;20048;-67
2021/09/23 00:46:48;;;;;;;59.65;38.85;;;;;;;;;;5043717;28;20055;-67
2021/09/23 00:49:14;;;;;;;60.45;40.25;;;;;;;;;;5061148;28;20076;-67
2021/09/23 00:51:41;;;;;;;64.70;40.75;;;;;;;;;;5042412;28;20403;-67
2021/09/23 00:54:07;;;;;;;67.60;43.30;;;;;;;;;;5040841;28;20045;-67
2021/09/23 00:56:33;;;;;;;66.20;43.33;;;;;;;;;;5046645;28;20230;-67
2021/09/23 00:58:59;;;;;;;76.13;46.70;;;;;;;;;;5059804;28;20646;-67
2021/09/23 01:01:25;;;;;;;71.72;46.58;;;;;;;;;;5055985;28;20118;-67
2021/09/23 01:03:53;;;;;;;74.78;49.05;;;;;;;;;;5058980;28;20106;-67
2021/09/23 01:06:19;;;;;;;79.00;48.67;;;;;;;;;;5059082;28;20131;-67
2021/09/23 01:08:56;;;;;;;74.28;48.13;;;;;;;;;;5040106;28;20052;-67
2021/09/23 01:11:23;;;;;;;80.38;52.22;;;;;;;;;;5058834;28;20068;-67
2021/09/23 01:13:49;;;;;;;80.28;49.90;;;;;;;;;;5037240;28;20476;-67
2021/09/23 01:16:16;;;;;;;81.50;52.15;;;;;;;;;;5060196;28;20040;-67
2021/09/23 01:18:42;;;;;;;94.15;54.17;;;;;;;;;;5058304;28;20047;-67
2021/09/23 01:21:09;;;;;;;79.65;52.97;;;;;;;;;;5060017;28;20051;-67
2021/09/23 01:23:37;;;;;;;87.30;55.83;;;;;;;;;;5058990;28;20408;-67
2021/09/23 01:26:05;;;;;;;88.47;55.80;;;;;;;;;;5060932;28;20036;-67
2021/09/23 01:28:31;;;;;;;90.22;56.20;;;;;;;;;;5059294;28;20056;-67
2021/09/23 01:30:57;;;;;;;92.45;55.78;;;;;;;;;;5060996;28;20035;-67
2021/09/23 01:33:24;;;;;;;88.97;55.22;;;;;;;;;;5040002;28;20072;-66
2021/09/23 01:35:50;;;;;;;88.60;56.65;;;;;;;;;;5042692;28;20425;-67
2021/09/23 01:38:16;;;;;;;91.30;56.95;;;;;;;;;;5056429;28;20064;-67
2021/09/23 01:40:42;;;;;;;90.85;58.35;;;;;;;;;;5032428;28;20485;-67
2021/09/23 01:43:08;;;;;;;85.47;57.25;;;;;;;;;;5049849;28;20082;-67
2021/09/23 01:45:34;;;;;;;92.38;58.95;;;;;;;;;;5041060;28;20040;-67
2021/09/23 01:48:01;;;;;;;90.20;58.03;;;;;;;;;;5050526;28;20519;-67
2021/09/23 01:50:27;;;;;;;86.88;54.92;;;;;;;;;;5027779;28;20048;-67
2021/09/23 01:52:53;;;;;;;88.65;57.05;;;;;;;;;;5057048;28;20045;-67
2021/09/23 01:55:19;;;;;;;83.95;56.50;;;;;;;;;;5061197;28;20551;-67
2021/09/23 01:57:45;;;;;;;83.68;55.85;;;;;;;;;;5059263;28;20068;-67
2021/09/23 02:00:12;;;;;;;87.10;53.75;;;;;;;;;;5057273;28;20049;-67
2021/09/23 02:02:38;;;;;;;87.75;55.67;;;;;;;;;;5044219;28;20052;-66
2021/09/23 02:05:04;;;;;;;82.90;54.65;;;;;;;;;;5041512;28;20507;-67
2021/09/23 02:07:31;;;;;;;88.03;54.67;;;;;;;;;;5036375;28;20167;-67
2021/09/23 02:09:57;;;;;;;86.75;54.03;;;;;;;;;;5056424;28;20047;-67
2021/09/23 02:12:23;;;;;;;88.55;54.00;;;;;;;;;;5056340;28;20052;-66
2021/09/23 02:14:50;;;;;;;86.07;54.33;;;;;;;;;;5040069;28;20040;-67
2021/09/23 02:17:16;;;;;;;90.68;55.13;;;;;;;;;;5043159;28;20036;-67
2021/09/23 02:19:42;;;;;;;90.25;54.47;;;;;;;;;;5041113;28;20404;-67
2021/09/23 02:22:08;;;;;;;87.07;53.85;;;;;;;;;;5058111;28;20123;-66
2021/09/23 02:24:34;;;;;;;82.93;53.35;;;;;;;;;;5058338;28;20052;-66
2021/09/23 02:27:01;;;;;;;92.07;56.60;;;;;;;;;;5059411;28;20044;-67
2021/09/23 02:29:27;;;;;;;91.70;55.15;;;;;;;;;;5045838;28;20045;-69
2021/09/23 02:31:53;;;;;;;87.68;53.97;;;;;;;;;;5042402;28;20048;-66
2021/09/23 02:34:19;;;;;;;91.10;54.42;;;;;;;;;;5042612;28;20067;-69
2021/09/23 02:36:45;;;;;;;89.43;55.53;;;;;;;;;;5046956;28;20053;-69
2021/09/23 02:39:11;;;;;;;88.15;55.47;;;;;;;;;;5063244;28;20440;-69
2021/09/23 02:41:38;;;;;;;97.47;56.42;;;;;;;;;;5047408;28;20051;-69
2021/09/23 02:44:04;;;;;;;90.95;55.00;;;;;;;;;;5064581;28;20090;-70
2021/09/23 02:46:32;;;;;;;86.28;54.50;;;;;;;;;;5044942;28;20135;-69
2021/09/23 02:48:59;;;;;;;98.18;58.67;;;;;;;;;;5042115;28;20040;-69
2021/09/23 02:51:25;;;;;;;94.78;56.08;;;;;;;;;;5028432;28;21570;-69
2021/09/23 02:53:51;;;;;;;91.50;55.72;;;;;;;;;;5043851;28;20101;-69
2021/09/23 02:56:17;;;;;;;92.80;56.35;;;;;;;;;;5064901;28;20063;-69
2021/09/23 02:58:45;;;;;;;104.00;58.25;;;;;;;;;;5041855;28;20102;-69
2021/09/23 03:01:11;;;;;;;91.53;57.50;;;;;;;;;;5045905;28;20894;-69
2021/09/23 03:03:37;;;;;;;92.63;56.70;;;;;;;;;;5042088;28;20059;-70
2021/09/23 03:06:03;;;;;;;96.90;56.42;;;;;;;;;;5043061;28;20071;-69
2021/09/23 03:08:29;;;;;;;98.65;57.17;;;;;;;;;;5062545;28;20044;-69
2021/09/23 03:10:56;;;;;;;92.57;55.50;;;;;;;;;;5044921;28;20141;-69
2021/09/23 03:13:22;;;;;;;94.45;56.55;;;;;;;;;;5061687;28;20048;-69
2021/09/23 03:15:48;;;;;;;100.55;58.10;;;;;;;;;;5061084;28;20087;-69
2021/09/23 03:18:14;;;;;;;104.53;56.50;;;;;;;;;;5044544;28;20067;-70
2021/09/23 03:20:43;;;;;;;100.47;57.45;;;;;;;;;;5044223;28;20178;-69
2021/09/23 03:23:09;;;;;;;104.60;59.50;;;;;;;;;;5045143;28;20048;-69
2021/09/23 03:25:35;;;;;;;96.97;57.35;;;;;;;;;;5064297;28;20059;-69
2021/09/23 03:28:02;;;;;;;98.60;54.70;;;;;;;;;;5045103;28;20484;-69
2021/09/23 03:30:28;;;;;;;103.80;57.78;;;;;;;;;;5041011;28;20048;-70
2021/09/23 03:32:54;;;;;;;105.45;59.33;;;;;;;;;;5042239;28;20462;-69
2021/09/23 03:35:21;;;;;;;117.50;59.10;;;;;;;;;;5041093;28;20044;-69
2021/09/23 03:37:48;;;;;;;109.22;59.25;;;;;;;;;;5041100;28;20467;-69
2021/09/23 03:40:14;;;;;;;106.65;58.00;;;;;;;;;;5056577;28;20384;-69
2021/09/23 03:42:41;;;;;;;115.38;59.83;;;;;;;;;;5050936;28;20048;-69
2021/09/23 03:45:08;;;;;;;97.90;57.60;;;;;;;;;;5033272;28;20045;-69
2021/09/23 03:47:34;;;;;;;109.68;57.88;;;;;;;;;;5037629;28;20354;-69
2021/09/23 03:50:00;;;;;;;103.82;55.47;;;;;;;;;;5064013;28;20040;-69
2021/09/23 03:52:26;;;;;;;102.43;56.70;;;;;;;;;;5059615;28;20475;-70
2021/09/23 03:54:53;;;;;;;97.18;55.97;;;;;;;;;;5061250;28;20078;-69
2021/09/23 03:57:19;;;;;;;107.50;57.67;;;;;;;;;;5043481;28;20075;-69
2021/09/23 03:59:46;;;;;;;111.78;57.83;;;;;;;;;;5044811;28;20083;-69
2021/09/23 04:02:13;;;;;;;110.70;58.65;;;;;;;;;;5043932;28;20041;-69
2021/09/23 04:04:39;;;;;;;115.53;60.08;;;;;;;;;;5041454;28;20060;-69
2021/09/23 04:07:06;;;;;;;106.78;56.70;;;;;;;;;;5042025;28;20484;-69
2021/09/23 04:09:32;;;;;;;111.07;56.35;;;;;;;;;;5042574;28;20128;-69
2021/09/23 04:11:58;;;;;;;125.60;61.10;;;;;;;;;;5039923;28;20044;-69
2021/09/23 04:14:24;;;;;;;130.80;63.28;;;;;;;;;;5058479;28;20056;-69
2021/09/23 04:16:51;;;;;;;146.02;66.97;;;;;;;;;;5060767;28;20041;-69
2021/09/23 04:19:19;;;;;;;130.70;66.40;;;;;;;;;;5043448;28;20045;-69
2021/09/23 04:21:45;;;;;;;156.18;68.55;;;;;;;;;;5043746;28;20161;-69
2021/09/23 04:24:12;;;;;;;134.07;66.13;;;;;;;;;;5057959;28;20033;-69
2021/09/23 04:26:38;;;;;;;143.65;67.30;;;;;;;;;;5059265;28;20047;-69
2021/09/23 04:29:05;;;;;;;135.23;64.15;;;;;;;;;;5039369;28;20519;-69
2021/09/23 04:31:31;;;;;;;131.77;62.40;;;;;;;;;;5022400;28;20048;-69
2021/09/23 04:33:57;;;;;;;126.28;58.35;;;;;;;;;;5039912;28;20079;-69
2021/09/23 04:36:23;;;;;;;119.47;58.90;;;;;;;;;;5046204;28;20538;-69
2021/09/23 04:38:49;;;;;;;137.27;60.17;;;;;;;;;;5046648;28;20064;-69
2021/09/23 04:41:16;;;;;;;117.55;59.13;;;;;;;;;;5041606;28;20403;-69
2021/09/23 04:43:42;;;;;;;121.63;59.28;;;;;;;;;;5041530;28;20114;-69
2021/09/23 04:46:09;;;;;;;126.38;62.33;;;;;;;;;;5042797;28;20040;-70
2021/09/23 04:48:36;;;;;;;141.18;61.72;;;;;;;;;;5041184;28;20059;-69
2021/09/23 04:51:02;;;;;;;138.20;62.33;;;;;;;;;;5046122;28;21693;-69
2021/09/23 04:53:28;;;;;;;119.20;57.05;;;;;;;;;;5059121;28;20093;-66
2021/09/23 04:55:54;;;;;;;121.95;56.75;;;;;;;;;;5057916;28;20155;-67
2021/09/23 04:58:21;;;;;;;129.30;59.10;;;;;;;;;;5040179;28;20053;-67
2021/09/23 05:00:47;;;;;;;128.23;60.08;;;;;;;;;;5041691;28;20190;-66
2021/09/23 05:03:14;;;;;;;123.50;56.78;;;;;;;;;;5036111;28;20509;-67
2021/09/23 05:05:40;;;;;;;118.35;54.28;;;;;;;;;;5034938;28;20037;-70
2021/09/23 05:08:07;;;;;;;114.78;55.15;;;;;;;;;;5059666;28;20384;-66
2021/09/23 05:10:35;;;;;;;117.13;54.10;;;;;;;;;;5055325;28;20048;-67
2021/09/23 05:13:02;;;;;;;99.10;47.45;;;;;;;;;;5036886;28;20532;-66
2021/09/23 05:15:28;;;;;;;99.00;48.22;;;;;;;;;;5065686;28;20150;-67
2021/09/23 05:17:54;;;;;;;94.85;44.20;;;;;;;;;;5042402;28;20123;-67
2021/09/23 05:20:20;;;;;;;81.38;41.47;;;;;;;;;;5062011;28;20044;-66
2021/09/23 05:22:46;;;;;;;79.43;38.97;;;;;;;;;;5024720;28;20048;-66
2021/09/23 05:25:13;;;;;;;68.82;34.53;;;;;;;;;;5045291;28;20052;-66
2021/09/23 05:27:39;;;;;;;60.83;32.60;;;;;;;;;;5063085;28;20050;-66
2021/09/23 05:30:07;;;;;;;50.55;28.25;;;;;;;;;;5039214;28;20151;-66
2021/09/23 05:32:33;;;;;;;61.72;30.38;;;;;;;;;;5040111;28;20126;-67
2021/09/23 05:34:59;;;;;;;60.50;28.77;;;;;;;;;;5064166;28;20048;-66
2021/09/23 05:37:25;;;;;;;54.30;25.80;;;;;;;;;;5066217;28;20524;-66
2021/09/23 05:39:52;;;;;;;50.38;26.13;;;;;;;;;;5048835;28;20052;-67
2021/09/23 05:42:18;;;;;;;50.15;25.42;;;;;;;;;;5064281;28;20134;-67
2021/09/23 05:44:44;;;;;;;44.25;22.95;;;;;;;;;;5061345;28;20477;-66
2021/09/23 05:47:11;;;;;;;40.95;21.27;;;;;;;;;;5054111;28;20081;-66
2021/09/23 05:49:37;;;;;;;43.22;19.98;;;;;;;;;;5056107;28;20037;-66
2021/09/23 05:52:04;;;;;;;43.88;20.67;;;;;;;;;;5061779;28;20041;-69
2021/09/23 05:54:30;;;;;;;44.67;21.45;;;;;;;;;;5051338;28;20048;-69
2021/09/23 05:56:56;;;;;;;39.78;21.60;;;;;;;;;;5042140;28;20037;-66
2021/09/23 05:59:24;;;;;;;41.97;19.10;;;;;;;;;;5062808;28;20033;-66
2021/09/23 06:01:51;;;;;;;44.70;20.02;;;;;;;;;;5049565;28;20048;-66
2021/09/23 06:04:17;;;;;;;45.15;20.27;;;;;;;;;;5054062;28;20060;-67
2021/09/23 06:06:43;;;;;;;35.17;18.45;;;;;;;;;;5042608;28;20055;-66
2021/09/23 06:09:09;;;;;;;35.15;17.88;;;;;;;;;;5054359;28;20428;-66
2021/09/23 06:11:37;;;;;;;32.08;18.67;;;;;;;;;;5063346;28;20045;-67
2021/09/23 06:14:03;;;;;;;34.45;17.67;;;;;;;;;;5064966;28;20048;-67
2021/09/23 06:16:30;;;;;;;31.70;16.98;;;;;;;;;;5059702;28;20147;-66
2021/09/23 06:18:56;;;;;;;31.63;17.23;;;;;;;;;;5054023;28;20049;-66
2021/09/23 06:21:22;;;;;;;35.03;17.42;;;;;;;;;;5065352;28;20045;-67
2021/09/23 06:23:48;;;;;;;33.83;18.08;;;;;;;;;;5061717;28;20041;-67
2021/09/23 06:26:15;;;;;;;31.08;17.33;;;;;;;;;;5049381;28;20076;-67
2021/09/23 06:28:41;;;;;;;29.27;17.05;;;;;;;;;;5065257;28;20123;-67
2021/09/23 06:31:07;;;;;;;34.55;17.60;;;;;;;;;;5043342;28;20485;-67
2021/09/23 06:33:33;;;;;;;31.40;17.27;;;;;;;;;;5051830;28;20048;-67
2021/09/23 06:35:59;;;;;;;34.88;17.25;;;;;;;;;;5048952;28;20178;-67
2021/09/23 06:38:25;;;;;;;32.58;17.63;;;;;;;;;;5048862;28;20053;-67
2021/09/23 06:40:55;;;;;;;25.38;16.73;;;;;;;;;;5065752;28;20041;-67
2021/09/23 06:43:22;;;;;;;31.13;15.50;;;;;;;;;;5047274;28;20500;-67
2021/09/23 06:45:49;;;;;;;23.65;13.07;;;;;;;;;;5051297;28;20150;-67
2021/09/23 06:48:15;;;;;;;27.63;13.25;;;;;;;;;;5045532;28;20083;-67
2021/09/23 06:50:41;;;;;;;21.67;11.32;;;;;;;;;;5049753;28;20041;-66
2021/09/23 06:53:07;;;;;;;18.40;10.93;;;;;;;;;;5054639;28;20375;-67
2021/09/23 06:55:34;;;;;;;16.52;9.80;;;;;;;;;;5054181;28;20040;-67
2021/09/23 06:58:00;;;;;;;16.85;8.80;;;;;;;;;;5065640;28;20036;-66
2021/09/23 07:00:27;;;;;;;18.83;8.65;;;;;;;;;;5059210;28;20040;-67
2021/09/23 07:02:53;;;;;;;12.52;6.97;;;;;;;;;;5057814;28;20103;-66
2021/09/23 07:05:20;;;;;;;15.25;5.07;;;;;;;;;;5065454;28;20039;-68
2021/09/23 07:07:46;;;;;;;11.20;4.80;;;;;;;;;;5041251;28;20539;-66
2021/09/23 07:10:12;;;;;;;12.23;4.32;;;;;;;;;;5063851;28;20037;-66
2021/09/23 07:12:38;;;;;;;9.27;3.90;;;;;;;;;;5049256;28;20156;-67
2021/09/23 07:15:05;;;;;;;10.32;3.42;;;;;;;;;;5042651;28;20051;-67
2021/09/23 07:17:33;;;;;;;10.85;3.30;;;;;;;;;;5055884;28;20052;-66
2021/09/23 07:19:59;;;;;;;10.98;3.20;;;;;;;;;;5035826;28;20484;-67
2021/09/23 07:22:25;;;;;;;9.95;2.83;;;;;;;;;;5053959;28;20044;-67
2021/09/23 07:24:51;;;;;;;11.98;3.10;;;;;;;;;;5052866;28;20051;-66
2021/09/23 07:27:18;;;;;;;11.48;2.75;;;;;;;;;;5055159;28;20132;-66
2021/09/23 07:29:44;;;;;;;11.23;3.25;;;;;;;;;;5039891;28;20120;-66
2021/09/23 07:32:11;;;;;;;15.40;3.33;;;;;;;;;;5043380;28;20044;-66
2021/09/23 07:34:38;;;;;;;11.10;2.55;;;;;;;;;;5058942;28;20422;-66
2021/09/23 07:37:04;;;;;;;8.55;3.10;;;;;;;;;;5041125;28;20137;-67
2021/09/23 07:39:32;;;;;;;12.30;3.85;;;;;;;;;;5051559;28;20174;-67
2021/09/23 07:41:58;;;;;;;10.00;2.70;;;;;;;;;;5053625;28;20091;-67
2021/09/23 07:44:25;;;;;;;9.48;2.90;;;;;;;;;;5055395;28;20051;-67
2021/09/23 07:46:52;;;;;;;8.98;2.92;;;;;;;;;;5055832;28;20087;-69
2021/09/23 07:49:18;;;;;;;8.13;3.40;;;;;;;;;;5049043;28;20059;-69
2021/09/23 07:51:45;;;;;;;15.82;4.55;;;;;;;;;;5053188;28;20503;-69
2021/09/23 07:54:11;;;;;;;11.75;3.72;;;;;;;;;;5052565;28;20120;-69
2021/09/23 07:56:38;;;;;;;11.60;4.07;;;;;;;;;;5044231;28;20052;-69
2021/09/23 07:59:04;;;;;;;9.02;3.10;;;;;;;;;;5053474;28;20068;-67
2021/09/23 08:01:30;;;;;;;13.00;3.80;;;;;;;;;;5052354;28;20069;-67
2021/09/23 08:03:57;;;;;;;9.60;3.80;;;;;;;;;;5052935;28;20103;-67
2021/09/23 08:06:23;;;;;;;11.80;3.78;;;;;;;;;;5052650;28;20044;-68
2021/09/23 08:08:50;;;;;;;10.50;2.95;;;;;;;;;;5052197;28;20489;-67
2021/09/23 08:11:16;;;;;;;14.13;3.28;;;;;;;;;;5052848;28;20048;-67
2021/09/23 08:13:42;;;;;;;10.38;3.35;;;;;;;;;;5044298;28;20087;-67
2021/09/23 08:16:09;;;;;;;15.23;2.83;;;;;;;;;;5035838;28;20395;-67
2021/09/23 08:18:35;;;;;;;14.50;3.15;;;;;;;;;;5052882;28;20037;-67
2021/09/23 08:21:01;;;;;;;18.65;3.28;;;;;;;;;;5052341;28;20448;-67
2021/09/23 08:23:27;;;;;;;12.75;3.08;;;;;;;;;;5052181;28;20048;-67
2021/09/23 08:25:53;;;;;;;12.55;2.85;;;;;;;;;;5045891;28;20427;-67
2021/09/23 08:28:26;;;;;;;12.30;3.03;;;;;;;;;;5053932;28;20045;-67
2021/09/23 08:30:52;;;;;;;11.07;3.17;;;;;;;;;;5060956;28;20051;-67
2021/09/23 08:33:19;;;;;;;12.93;2.72;;;;;;;;;;5048214;28;20048;-67
2021/09/23 08:35:45;;;;;;;13.75;3.28;;;;;;;;;;5051959;28;20041;-67
2021/09/23 08:38:12;;;;;;;11.88;2.80;;;;;;;;;;5052093;28;20369;-67
2021/09/23 08:40:39;;;;;;;10.88;2.80;;;;;;;;;;5052042;28;20466;-67
2021/09/23 08:43:05;;;;;;;14.70;3.72;;;;;;;;;;5051625;28;20128;-67
2021/09/23 08:45:32;;;;;;;15.45;3.13;;;;;;;;;;5051960;28;20479;-67
2021/09/23 08:47:59;;;;;;;15.38;3.22;;;;;;;;;;5037808;28;20045;-67
2021/09/23 08:50:25;;;;;;;11.02;2.35;;;;;;;;;;5051733;28;20048;-68
2021/09/23 08:52:51;;;;;;;15.30;3.60;;;;;;;;;;5058250;28;20169;-68
2021/09/23 08:55:20;;;;;;;9.18;2.83;;;;;;;;;;5067196;28;20068;-70
2021/09/23 08:57:46;;;;;;;12.02;2.83;;;;;;;;;;5066258;28;20040;-68
2021/09/23 09:00:13;;;;;;;11.75;2.53;;;;;;;;;;5042703;28;20041;-68
2021/09/23 09:02:39;;;;;;;18.52;2.92;;;;;;;;;;5038442;28;20052;-67
2021/09/23 09:05:05;;;;;;;10.77;2.60;;;;;;;;;;5043445;28;20037;-67
2021/09/23 09:07:32;;;;;;;10.52;2.70;;;;;;;;;;5037093;28;20052;-67
2021/09/23 09:10:05;;;;;;;14.95;3.67;;;;;;;;;;5067127;28;20043;-67
2021/09/23 09:12:31;;;;;;;;;;;;;;;;;;5068506;28;20074;-67
2021/09/23 09:14:58;;;;;;;17.27;3.20;;;;;;;;;;5042176;28;19990;-67
2021/09/23 09:17:24;;;;;;;11.30;3.00;;;;;;;;;;5060120;28;20058;-66
2021/09/23 09:19:57;;;;;;;15.02;3.03;;;;;;;;;;5064712;28;20041;-67
2021/09/23 09:22:24;;;;;;;17.20;4.03;;;;;;;;;;5062493;28;20078;-67
2021/09/23 09:24:54;;;;;;;16.85;3.25;;;;;;;;;;5041889;28;20049;-67
2021/09/23 09:27:25;;;;;;;13.25;3.00;;;;;;;;;;5018147;28;20045;-67
2021/09/23 09:29:54;;;;;;;14.95;3.25;;;;;;;;;;5043858;28;20098;-67
2021/09/23 09:32:38;;;;;;;14.65;3.15;;;;;;;;;;5051553;28;20045;-67
2021/09/23 09:35:04;;;;;;;23.73;4.63;;;;;;;;;;5040929;28;20044;-67
2021/09/23 09:37:32;;;;;;;14.20;3.60;;;;;;;;;;5036337;28;20052;-66
2021/09/23 09:39:58;;;;;;;12.43;2.78;;;;;;;;;;5036126;28;20044;-67
2021/09/23 09:42:27;;;;;;;16.23;3.10;;;;;;;;;;5045120;28;20057;-67
2021/09/23 09:44:54;;;;;;;12.68;3.28;;;;;;;;;;5060365;28;20056;-67
2021/09/23 09:47:27;;;;;;;19.63;2.90;;;;;;;;;;5036572;28;20086;-67
2021/09/23 09:49:53;;;;;;;16.45;2.80;;;;;;;;;;5059923;28;20056;-67
2021/09/23 09:52:29;;;;;;;13.73;2.95;;;;;;;;;;5065030;28;20047;-67
2021/09/23 09:55:00;;;;;;;12.00;2.83;;;;;;;;;;5047080;28;20074;-66
2021/09/23 09:57:26;;;;;;;16.02;3.03;;;;;;;;;;5044246;28;20583;-66
2021/09/23 09:59:52;;;;;;;16.45;3.33;;;;;;;;;;5038169;28;20045;-66
2021/09/23 10:02:19;;;;;;;22.00;4.07;;;;;;;;;;5032894;28;20049;-67
2021/09/23 10:04:45;;;;;;;16.15;3.30;;;;;;;;;;5041522;28;20044;-66
2021/09/23 10:07:13;;;;;;;19.65;3.17;;;;;;;;;;5039569;28;20094;-65
2021/09/23 10:09:40;;;;;;;25.20;4.47;;;;;;;;;;5034629;28;20057;-65
2021/09/23 10:12:07;;;;;;;15.13;3.63;;;;;;;;;;5040136;28;20075;-65
2021/09/23 10:14:34;;;;;;;22.98;4.18;;;;;;;;;;5053912;28;20178;-65
2021/09/23 10:17:00;;;;;;;16.88;3.58;;;;;;;;;;5065061;28;20043;-65
2021/09/23 10:19:27;;;;;;;17.65;3.30;;;;;;;;;;5059804;28;20387;-65
2021/09/23 10:21:53;;;;;;;22.33;4.63;;;;;;;;;;5062391;28;21343;-65
2021/09/23 10:24:20;;;;;;;15.40;3.80;;;;;;;;;;5059168;28;20499;-66
2021/09/23 10:26:48;;;;;;;17.65;4.43;;;;;;;;;;5064909;28;20048;-66
2021/09/23 10:29:15;;;;;;;17.45;3.25;;;;;;;;;;5061730;28;20043;-66
2021/09/23 10:31:43;;;;;;;17.98;3.70;;;;;;;;;;5063410;28;20036;-65
2021/09/23 10:34:10;;;;;;;13.50;3.17;;;;;;;;;;5049014;28;20051;-66
2021/09/23 10:36:36;;;;;;;15.65;3.30;;;;;;;;;;5061810;28;20040;-66
2021/09/23 10:39:06;;;;;;;18.65;4.82;;;;;;;;;;5041919;28;20154;-66
2021/09/23 10:41:33;;;;;;;16.13;3.92;;;;;;;;;;5054269;28;20207;-65
2021/09/23 10:43:59;;;;;;;17.60;4.00;;;;;;;;;;5060744;28;20119;-66
2021/09/23 10:46:26;;;;;;;17.98;3.38;;;;;;;;;;5038975;28;20064;-66
2021/09/23 10:48:53;;;;;;;28.90;4.70;;;;;;;;;;5064221;28;20036;-66
2021/09/23 10:51:20;;;;;;;18.95;3.58;;;;;;;;;;5047123;28;20056;-66
2021/09/23 10:53:48;;;;;;;12.73;2.88;;;;;;;;;;5064885;28;20052;-66
2021/09/23 10:56:16;;;;;;;11.35;2.50;;;;;;;;;;5050971;28;20055;-65
2021/09/23 10:58:43;;;;;;;13.23;3.58;;;;;;;;;;5042630;28;20045;-66
2021/09/23 11:01:18;;;;;;;18.88;3.53;;;;;;;;;;5065240;28;20051;-65
2021/09/23 11:03:44;;;;;;;13.23;3.97;;;;;;;;;;5036626;28;20036;-65
2021/09/23 11:06:11;;;;;;;13.20;3.22;;;;;;;;;;5036123;28;20056;-65
2021/09/23 11:08:40;;;;;;;19.23;3.42;;;;;;;;;;5066078;28;20080;-65
2021/09/23 11:11:07;;;;;;;15.57;3.50;;;;;;;;;;5035869;28;20083;-65
2021/09/23 11:13:35;;;;;;;21.83;3.67;;;;;;;;;;5068666;28;20103;-65
2021/09/23 11:16:04;;;;;;;18.20;3.70;;;;;;;;;;5049247;28;20368;-65
2021/09/23 11:18:30;;;;;;;16.50;3.53;;;;;;;;;;5071564;28;20062;-66
2021/09/23 11:20:57;;;;;;;12.00;2.75;;;;;;;;;;5067990;28;20086;-66
2021/09/23 11:23:23;;;;;;;7.47;2.47;;;;;;;;;;5044954;28;20448;-65
2021/09/23 11:25:50;;;;;;;13.70;3.47;;;;;;;;;;5049520;28;20072;-65
2021/09/23 11:28:23;;;;;;;11.82;2.97;;;;;;;;;;5064536;28;20453;-66
2021/09/23 11:30:51;;;;;;;9.47;2.83;;;;;;;;;;5037414;28;20041;-66
2021/09/23 11:33:21;;;;;;;16.75;2.80;;;;;;;;;;5054669;28;20064;-65
2021/09/23 11:35:47;;;;;;;10.25;2.85;;;;;;;;;;5071722;28;20045;-65
2021/09/23 11:38:15;;;;;;;12.43;2.90;;;;;;;;;;5042914;28;20142;-65
2021/09/23 11:40:42;;;;;;;16.33;4.03;;;;;;;;;;5063127;28;20049;-65
2021/09/23 11:43:11;;;;;;;22.27;3.67;;;;;;;;;;5063225;28;20037;-65
2021/09/23 11:45:38;;;;;;;11.82;2.83;;;;;;;;;;5037801;28;20060;-65
2021/09/23 11:48:09;;;;;;;13.18;2.45;;;;;;;;;;5042806;28;20150;-65
2021/09/23 11:50:36;;;;;;;12.38;2.85;;;;;;;;;;5067239;28;20051;-65
2021/09/23 11:53:09;;;;;;;14.30;3.03;;;;;;;;;;5034854;28;20089;-65
2021/09/23 11:55:41;;;;;;;13.27;3.58;;;;;;;;;;5049476;28;20056;-65
2021/09/23 11:58:09;;;;;;;15.57;3.22;;;;;;;;;;5052012;28;20083;-65
2021/09/23 12:00:37;;;;;;;13.05;2.88;;;;;;;;;;5068114;28;20418;-65
2021/09/23 12:03:04;;;;;;;13.70;2.83;;;;;;;;;;5040138;28;20118;-64
2021/09/23 12:05:31;;;;;;;14.05;3.15;;;;;;;;;;5067403;28;20088;-65
2021/09/23 12:08:04;;;;;;;19.60;3.88;;;;;;;;;;5038522;28;20532;-65
2021/09/23 12:10:31;;;;;;;13.68;3.92;;;;;;;;;;5064781;28;20036;-65
2021/09/23 12:12:58;;;;;;;12.45;2.72;;;;;;;;;;5018871;28;20120;-65
2021/09/23 12:15:24;;;;;;;15.88;3.30;;;;;;;;;;5057198;28;20037;-65
2021/09/23 12:17:55;;;;;;;13.00;3.10;;;;;;;;;;5060863;28;20045;-65
2021/09/23 12:20:21;;;;;;;15.40;2.92;;;;;;;;;;5042004;28;20044;-65
2021/09/23 12:22:47;;;;;;;17.65;3.53;;;;;;;;;;5033783;28;20524;-65
2021/09/23 12:25:15;;;;;;;13.25;3.08;;;;;;;;;;5065553;28;20392;-65
2021/09/23 12:27:41;;;;;;;16.00;3.35;;;;;;;;;;5063077;28;20040;-65
2021/09/23 12:30:07;;;;;;;17.10;5.00;;;;;;;;;;5062322;28;20349;-65
2021/09/23 12:32:37;;;;;;;17.35;2.88;;;;;;;;;;5060820;28;20041;-65
2021/09/23 12:35:18;;;;;;;19.38;3.33;;;;;;;;;;5067064;28;20049;-65
2021/09/23 12:37:45;;;;;;;11.80;2.85;;;;;;;;;;5044286;28;20049;-65
2021/09/23 12:40:13;;;;;;;13.82;2.80;;;;;;;;;;5063803;28;20122;-65
2021/09/23 12:42:39;;;;;;;16.10;3.70;;;;;;;;;;5069311;28;20373;-65
2021/09/23 12:45:07;;;;;;;14.68;3.00;;;;;;;;;;5059772;28;20063;-65
2021/09/23 12:47:49;;;;;;;20.20;3.88;;;;;;;;;;5048377;28;20048;-65
2021/09/23 12:50:17;;;;;;;18.45;3.47;;;;;;;;;;5062068;28;20371;-65
2021/09/23 12:52:44;;;;;;;13.50;3.03;;;;;;;;;;5056788;28;20170;-65
2021/09/23 12:55:19;;;;;;;13.00;3.10;;;;;;;;;;5065654;28;20036;-65
2021/09/23 12:57:47;;;;;;;16.85;3.75;;;;;;;;;;5037859;28;20052;-65
2021/09/23 13:00:16;;;;;;;14.23;3.13;;;;;;;;;;5070013;28;20040;-65
2021/09/23 13:02:44;;;;;;;16.25;3.55;;;;;;;;;;5065264;28;20526;-65
2021/09/23 13:05:11;;;;;;;14.57;3.45;;;;;;;;;;5050886;28;20051;-65
2021/09/23 13:07:48;;;;;;;17.48;4.03;;;;;;;;;;5063525;28;20072;-65
2021/09/23 13:10:16;;;;;;;20.25;3.50;;;;;;;;;;5039616;28;20066;-65
2021/09/23 13:12:43;;;;;;;17.13;3.78;;;;;;;;;;5036863;28;20453;-65
2021/09/23 13:15:17;;;;;;;15.38;3.10;;;;;;;;;;5065896;28;20441;-65
2021/09/23 13:17:43;;;;;;;15.98;3.47;;;;;;;;;;5038256;28;20044;-65
2021/09/23 13:20:09;;;;;;;18.42;3.30;;;;;;;;;;5039092;28;20056;-65
2021/09/23 13:22:39;;;;;;;20.55;4.82;;;;;;;;;;5033196;28;20095;-65
2021/09/23 13:25:05;;;;;;;18.33;3.50;;;;;;;;;;5062303;28;20052;-65
2021/09/23 13:27:31;;;;;;;13.43;3.95;;;;;;;;;;5069030;28;20123;-65
2021/09/23 13:29:57;;;;;;;20.27;3.65;;;;;;;;;;5062285;28;20425;-65
2021/09/23 13:32:23;;;;;;;16.48;4.25;;;;;;;;;;5040106;28;20404;-65
2021/09/23 13:34:50;;;;;;;19.05;3.45;;;;;;;;;;5060038;28;20068;-65
2021/09/23 13:37:16;;;;;;;20.98;3.33;;;;;;;;;;5022476;28;20055;-65
2021/09/23 13:39:42;;;;;;;14.45;3.03;;;;;;;;;;5067047;28;20045;-65
2021/09/23 13:42:08;;;;;;;13.63;2.92;;;;;;;;;;5065145;28;20072;-65
2021/09/23 13:44:34;;;;;;;18.02;3.90;;;;;;;;;;5068098;28;20052;-65
2021/09/23 13:47:02;;;;;;;17.98;3.63;;;;;;;;;;5035986;28;20045;-65
2021/09/23 13:49:28;;;;;;;14.65;3.95;;;;;;;;;;5041367;28;20110;-65
2021/09/23 13:51:55;;;;;;;18.95;3.60;;;;;;;;;;5062555;28;20106;-66
2021/09/23 13:54:21;;;;;;;16.25;3.25;;;;;;;;;;5041795;28;20040;-66
2021/09/23 13:56:47;;;;;;;14.52;3.00;;;;;;;;;;5039793;28;20051;-66
2021/09/23 13:59:13;;;;;;;14.30;2.78;;;;;;;;;;5042972;28;20044;-66
2021/09/23 14:01:39;;;;;;;18.63;3.50;;;;;;;;;;5044850;28;20040;-66
2021/09/23 14:04:06;;;;;;;18.55;3.53;;;;;;;;;;5047641;28;20518;-66
2021/09/23 14:06:32;;;;;;;16.30;3.17;;;;;;;;;;5045553;28;20376;-66
2021/09/23 14:08:58;;;;;;;18.95;3.63;;;;;;;;;;5047495;28;20041;-66
2021/09/23 14:11:24;;;;;;;15.60;3.25;;;;;;;;;;5048071;28;20041;-66
2021/09/23 14:13:50;;;;;;;19.77;3.05;;;;;;;;;;5055143;28;20063;-66
2021/09/23 14:16:16;;;;;;;12.90;3.38;;;;;;;;;;5062197;28;20045;-66
2021/09/23 14:18:43;;;;;;;13.30;3.55;;;;;;;;;;5065067;28;20045;-66
2021/09/23 14:21:09;;;;;;;17.35;3.17;;;;;;;;;;5046168;28;20041;-66